Time,TemperatureF,DewpointF,PressureIn,WindDirection,WindDirectionDegrees,WindSpeedMPH,WindSpeedGustMPH,Humidity,HourlyPrecipIn,Conditions,Clouds,dailyrainin,SoftwareType,DateUTC
2013-03-12 00:13:00,22.6,19.0,29.86,West,266,2.0,4.0,86,0.00,,,0.00,weatherlink.com 1.10,2013-03-12 05:13:00,
2013-03-12 00:28:00,22.4,19.0,29.86,West,265,1.0,4.0,86,0.00,,,0.00,weatherlink.com 1.10,2013-03-12 05:28:00,
2013-03-12 00:44:00,22.2,19.0,29.86,WSW,246,2.0,3.0,86,0.00,,,0.00,weatherlink.com 1.10,2013-03-12 05:44:00,
2013-03-12 00:59:00,21.9,18.0,29.86,WNW,298,0.0,4.0,86,0.00,,,0.00,weatherlink.com 1.10,2013-03-12 05:59:00,
2013-03-12 01:14:00,21.5,18.0,29.86,WNW,297,0.0,4.0,85,0.00,,,0.00,weatherlink.com 1.10,2013-03-12 06:14:00,
2013-03-12 01:29:00,21.2,17.0,29.86,WNW,290,0.0,4.0,85,0.00,,,0.00,weatherlink.com 1.10,2013-03-12 06:29:00,
2013-03-12 01:44:00,21.1,17.0,29.85,WSW,257,0.0,4.0,85,0.00,,,0.00,weatherlink.com 1.10,2013-03-12 06:44:00,
2013-03-12 01:59:00,21.5,17.0,29.86,West,274,0.0,4.0,83,0.00,,,0.00,weatherlink.com 1.10,2013-03-12 06:59:00,
2013-03-12 02:14:00,21.8,17.0,29.86,WNW,290,1.0,5.0,82,0.00,,,0.00,weatherlink.com 1.10,2013-03-12 07:14:00,
2013-03-12 02:29:00,22.2,17.0,29.86,West,262,0.0,2.0,81,0.00,,,0.00,weatherlink.com 1.10,2013-03-12 07:29:00,
2013-03-12 02:44:00,22.5,17.0,29.86,WNW,285,2.0,4.0,79,0.00,,,0.00,weatherlink.com 1.10,2013-03-12 07:44:00,
2013-03-12 02:59:00,22.7,17.0,29.86,West,264,1.0,2.0,78,0.00,,,0.00,weatherlink.com 1.10,2013-03-12 07:59:00,
2013-03-12 03:14:00,22.9,17.0,29.86,WNW,287,1.0,3.0,77,0.00,,,0.00,weatherlink.com 1.10,2013-03-12 08:14:00,
2013-03-12 03:29:00,22.9,16.0,29.85,West,273,2.0,5.0,76,0.00,,,0.00,weatherlink.com 1.10,2013-03-12 08:29:00,
2013-03-12 03:44:00,23.0,16.0,29.85,West,275,2.0,10.0,75,0.00,,,0.00,weatherlink.com 1.10,2013-03-12 08:44:00,
2013-03-12 03:59:00,23.1,16.0,29.85,WSW,256,0.0,4.0,75,0.00,,,0.00,weatherlink.com 1.10,2013-03-12 08:59:00,
2013-03-12 04:14:00,23.1,16.0,29.85,NW,306,4.0,6.0,74,0.00,,,0.00,weatherlink.com 1.10,2013-03-12 09:14:00,
2013-03-12 04:29:00,23.1,16.0,29.85,WNW,288,2.0,4.0,74,0.00,,,0.00,weatherlink.com 1.10,2013-03-12 09:29:00,
2013-03-12 04:44:00,23.1,16.0,29.86,WNW,285,0.0,5.0,75,0.00,,,0.00,weatherlink.com 1.10,2013-03-12 09:44:00,
2013-03-12 04:59:00,23.1,16.0,29.86,WNW,285,1.0,2.0,75,0.00,,,0.00,weatherlink.com 1.10,2013-03-12 09:59:00,
2013-03-12 05:14:00,23.1,16.0,29.86,WSW,249,0.0,4.0,75,0.00,,,0.00,weatherlink.com 1.10,2013-03-12 10:14:00,
2013-03-12 05:29:00,23.1,16.0,29.87,NW,309,1.0,4.0,75,0.00,,,0.00,weatherlink.com 1.10,2013-03-12 10:29:00,
2013-03-12 05:44:00,23.1,17.0,29.87,WNW,302,3.0,5.0,76,0.00,,,0.00,weatherlink.com 1.10,2013-03-12 10:44:00,
2013-03-12 05:59:00,23.1,17.0,29.88,NW,304,2.0,7.0,76,0.00,,,0.00,weatherlink.com 1.10,2013-03-12 10:59:00,
2013-03-12 06:14:00,23.1,17.0,29.88,WNW,300,2.0,5.0,77,0.00,,,0.00,weatherlink.com 1.10,2013-03-12 11:14:00,
2013-03-12 06:29:00,23.1,17.0,29.89,West,281,0.0,3.0,77,0.00,,,0.00,weatherlink.com 1.10,2013-03-12 11:29:00,
2013-03-12 06:44:00,23.1,17.0,29.89,WNW,283,1.0,5.0,78,0.00,,,0.00,weatherlink.com 1.10,2013-03-12 11:44:00,
2013-03-12 06:59:00,23.0,17.0,29.89,WNW,301,2.0,6.0,78,0.00,,,0.00,weatherlink.com 1.10,2013-03-12 11:59:00,
2013-03-12 07:14:00,22.9,17.0,29.89,WNW,285,1.0,7.0,79,0.00,,,0.00,weatherlink.com 1.10,2013-03-12 12:14:00,
2013-03-12 07:29:00,22.8,17.0,29.89,West,269,0.0,7.0,79,0.00,,,0.00,weatherlink.com 1.10,2013-03-12 12:29:00,
2013-03-12 07:44:00,22.7,17.0,29.90,NW,316,1.0,6.0,80,0.00,,,0.00,weatherlink.com 1.10,2013-03-12 12:44:00,
2013-03-12 07:59:00,22.6,18.0,29.90,NW,310,1.0,9.0,81,0.00,,,0.00,weatherlink.com 1.10,2013-03-12 12:59:00,
2013-03-12 08:14:00,22.5,18.0,29.90,West,269,0.0,8.0,83,0.00,,,0.00,weatherlink.com 1.10,2013-03-12 13:14:00,
2013-03-12 08:29:00,22.5,18.0,29.91,NW,315,1.0,5.0,83,0.00,,,0.00,weatherlink.com 1.10,2013-03-12 13:29:00,
2013-03-12 08:44:00,22.9,18.0,29.91,WNW,285,1.0,7.0,82,0.00,,,0.00,weatherlink.com 1.10,2013-03-12 13:44:00,
2013-03-12 09:00:00,23.2,18.0,29.92,WNW,303,5.0,9.0,80,0.00,,,0.00,weatherlink.com 1.10,2013-03-12 14:00:00,
2013-03-12 09:16:00,23.3,18.0,29.93,WSW,252,3.0,7.0,81,0.00,,,0.00,weatherlink.com 1.10,2013-03-12 14:16:00,
2013-03-12 09:30:00,23.6,18.0,29.93,West,274,5.0,8.0,79,0.00,,,0.00,weatherlink.com 1.10,2013-03-12 14:30:00,
2013-03-12 09:45:00,24.9,18.0,29.93,NW,304,3.0,7.0,76,0.00,,,0.00,weatherlink.com 1.10,2013-03-12 14:45:00,
2013-03-12 10:00:00,25.6,18.0,29.94,NNW,341,1.0,9.0,72,0.00,,,0.00,weatherlink.com 1.10,2013-03-12 15:00:00,
2013-03-12 10:15:00,25.8,18.0,29.94,West,260,2.0,7.0,71,0.00,,,0.00,weatherlink.com 1.10,2013-03-12 15:15:00,
2013-03-12 10:30:00,26.4,17.0,29.94,NW,323,5.0,10.0,69,0.00,,,0.00,weatherlink.com 1.10,2013-03-12 15:30:00,
2013-03-12 10:45:00,26.9,17.0,29.95,WNW,288,2.0,10.0,67,0.00,,,0.00,weatherlink.com 1.10,2013-03-12 15:45:00,
2013-03-12 11:00:00,26.8,18.0,29.95,NW,326,6.0,11.0,68,0.00,,,0.00,weatherlink.com 1.10,2013-03-12 16:00:00,
2013-03-12 11:15:00,26.8,19.0,29.96,WNW,290,2.0,10.0,72,0.00,,,0.00,weatherlink.com 1.10,2013-03-12 16:15:00,
2013-03-12 11:30:00,27.4,19.0,29.97,NW,312,2.0,10.0,70,0.00,,,0.00,weatherlink.com 1.10,2013-03-12 16:30:00,
2013-03-12 11:45:00,27.3,19.0,29.97,NW,316,1.0,12.0,70,0.00,,,0.00,weatherlink.com 1.10,2013-03-12 16:45:00,
2013-03-12 12:00:00,27.7,19.0,29.97,NW,309,1.0,10.0,70,0.00,,,0.00,weatherlink.com 1.10,2013-03-12 17:00:00,
2013-03-12 12:15:00,27.7,20.0,29.97,West,262,1.0,8.0,72,0.00,,,0.00,weatherlink.com 1.10,2013-03-12 17:15:00,
2013-03-12 12:30:00,27.9,19.0,29.98,WNW,297,3.0,11.0,70,0.00,,,0.00,weatherlink.com 1.10,2013-03-12 17:30:00,
2013-03-12 12:45:00,28.4,19.0,29.98,West,259,2.0,12.0,69,0.00,,,0.00,weatherlink.com 1.10,2013-03-12 17:45:00,
2013-03-12 13:00:00,28.9,18.0,29.98,NW,317,7.0,12.0,65,0.00,,,0.00,weatherlink.com 1.10,2013-03-12 18:00:00,
2013-03-12 13:15:00,29.1,18.0,29.98,West,276,4.0,11.0,64,0.00,,,0.00,weatherlink.com 1.10,2013-03-12 18:15:00,
2013-03-12 13:30:00,29.2,18.0,29.98,WNW,290,3.0,14.0,64,0.00,,,0.00,weatherlink.com 1.10,2013-03-12 18:30:00,
2013-03-12 13:45:00,29.2,18.0,29.98,West,265,6.0,11.0,64,0.00,,,0.00,weatherlink.com 1.10,2013-03-12 18:45:00,
2013-03-12 14:00:00,28.4,18.0,29.99,NW,306,3.0,12.0,64,0.00,,,0.00,weatherlink.com 1.10,2013-03-12 19:00:00,
2013-03-12 14:15:00,29.0,18.0,29.98,West,281,3.0,11.0,63,0.00,,,0.00,weatherlink.com 1.10,2013-03-12 19:15:00,
2013-03-12 14:30:00,29.3,18.0,29.98,NW,309,2.0,17.0,64,0.00,,,0.00,weatherlink.com 1.10,2013-03-12 19:30:00,
2013-03-12 14:45:00,29.9,19.0,29.99,WNW,301,6.0,10.0,64,0.00,,,0.00,weatherlink.com 1.10,2013-03-12 19:45:00,
2013-03-12 15:00:00,29.8,17.0,29.99,NNW,333,3.0,14.0,58,0.00,,,0.00,weatherlink.com 1.10,2013-03-12 20:00:00,
2013-03-12 15:30:00,29.3,18.0,29.99,NW,318,8.0,11.0,63,0.00,,,0.00,weatherlink.com 1.10,2013-03-12 20:30:00,
2013-03-12 15:49:00,28.4,19.0,30.00,NW,312,2.0,13.0,67,0.00,,,0.00,weatherlink.com 1.10,2013-03-12 20:49:00,
2013-03-12 16:00:00,29.2,16.0,30.00,WNW,300,5.0,14.0,58,0.00,,,0.00,weatherlink.com 1.10,2013-03-12 21:00:00,
2013-03-12 16:15:00,29.6,16.0,30.01,WNW,301,2.0,12.0,56,0.00,,,0.00,weatherlink.com 1.10,2013-03-12 21:15:00,
2013-03-12 16:30:00,29.9,15.0,30.01,West,277,4.0,11.0,55,0.00,,,0.00,weatherlink.com 1.10,2013-03-12 21:30:00,
2013-03-12 16:46:00,30.1,15.0,30.02,NW,308,5.0,12.0,53,0.00,,,0.00,weatherlink.com 1.10,2013-03-12 21:46:00,
2013-03-12 17:01:00,30.0,14.0,30.02,NW,305,2.0,13.0,52,0.00,,,0.00,weatherlink.com 1.10,2013-03-12 22:01:00,
2013-03-12 17:16:00,29.4,14.0,30.03,West,273,3.0,12.0,54,0.00,,,0.00,weatherlink.com 1.10,2013-03-12 22:16:00,
2013-03-12 17:31:00,28.9,14.0,30.03,NW,306,1.0,10.0,53,0.00,,,0.00,weatherlink.com 1.10,2013-03-12 22:31:00,
2013-03-12 17:46:00,28.5,13.0,30.04,WNW,291,7.0,13.0,53,0.00,,,0.00,weatherlink.com 1.10,2013-03-12 22:46:00,
2013-03-12 18:01:00,28.6,14.0,30.05,WNW,285,4.0,9.0,54,0.00,,,0.00,weatherlink.com 1.10,2013-03-12 23:01:00,
2013-03-12 18:16:00,28.0,13.0,30.05,NNW,333,3.0,9.0,53,0.00,,,0.00,weatherlink.com 1.10,2013-03-12 23:16:00,
2013-03-12 19:16:00,26.8,14.0,30.09,NW,321,1.0,9.0,59,0.00,,,0.00,weatherlink.com 1.10,2013-03-13 00:16:00,
2013-03-12 19:31:00,26.4,14.0,30.09,NW,321,1.0,5.0,60,0.00,,,0.00,weatherlink.com 1.10,2013-03-13 00:31:00,
2013-03-12 19:46:00,26.1,14.0,30.11,SW,224,2.0,11.0,61,0.00,,,0.00,weatherlink.com 1.10,2013-03-13 00:46:00,
2013-03-12 20:01:00,25.9,15.0,30.11,NNE,12,11.0,11.0,63,0.00,,,0.00,weatherlink.com 1.10,2013-03-13 01:01:00,
2013-03-12 20:16:00,25.7,15.0,30.12,NW,314,2.0,9.0,65,0.00,,,0.00,weatherlink.com 1.10,2013-03-13 01:16:00,
2013-03-12 20:31:00,25.3,16.0,30.13,WNW,297,8.0,15.0,67,0.00,,,0.00,weatherlink.com 1.10,2013-03-13 01:31:00,
2013-03-12 20:46:00,25.3,16.0,30.14,WNW,294,6.0,7.0,68,0.00,,,0.00,weatherlink.com 1.10,2013-03-13 01:46:00,
2013-03-12 21:01:00,25.3,16.0,30.15,NNE,32,3.0,8.0,67,0.00,,,0.00,weatherlink.com 1.10,2013-03-13 02:01:00,
2013-03-12 21:16:00,25.1,16.0,30.15,NW,314,0.0,7.0,67,0.00,,,0.00,weatherlink.com 1.10,2013-03-13 02:16:00,
2013-03-12 21:31:00,25.1,15.0,30.16,NE,41,3.0,14.0,65,0.00,,,0.00,weatherlink.com 1.10,2013-03-13 02:31:00,
2013-03-12 21:46:00,24.9,15.0,30.16,NW,304,2.0,9.0,65,0.00,,,0.00,weatherlink.com 1.10,2013-03-13 02:46:00,
2013-03-12 22:01:00,24.6,15.0,30.17,West,264,0.0,7.0,66,0.00,,,0.00,weatherlink.com 1.10,2013-03-13 03:01:00,
2013-03-12 22:16:00,24.2,15.0,30.18,NW,321,1.0,7.0,67,0.00,,,0.00,weatherlink.com 1.10,2013-03-13 03:16:00,
2013-03-12 22:31:00,23.8,15.0,30.18,WNW,300,0.0,3.0,69,0.00,,,0.00,weatherlink.com 1.10,2013-03-13 03:31:00,
2013-03-12 22:46:00,23.5,15.0,30.19,WNW,298,0.0,6.0,69,0.00,,,0.00,weatherlink.com 1.10,2013-03-13 03:46:00,
2013-03-12 23:02:00,23.2,14.0,30.19,WNW,298,1.0,5.0,68,0.00,,,0.00,weatherlink.com 1.10,2013-03-13 04:02:00,
2013-03-12 23:17:00,23.1,14.0,30.20,WNW,302,0.0,4.0,67,0.00,,,0.00,weatherlink.com 1.10,2013-03-13 04:17:00,
2013-03-12 23:32:00,22.7,13.0,30.20,West,278,2.0,5.0,67,0.00,,,0.00,weatherlink.com 1.10,2013-03-13 04:32:00,
2013-03-12 23:47:00,22.5,13.0,30.21,WNW,284,0.0,4.0,66,0.00,,,0.00,weatherlink.com 1.10,2013-03-13 04:47:00,